createdAt,value
2018-06-29T00:01:15.892Z,99.90
2018-06-29T00:03:44.154Z,99.90
2018-06-29T00:06:12.447Z,99.90
2018-06-29T00:08:40.711Z,99.90
2018-06-29T00:11:09.052Z,99.90
2018-06-29T00:16:05.434Z,99.90
2018-06-29T00:18:33.736Z,99.90
2018-06-29T00:21:02.065Z,99.90
2018-06-29T00:23:30.363Z,99.90
2018-06-29T00:25:58.635Z,99.90
2018-06-29T00:28:26.925Z,99.90
2018-06-29T00:30:55.214Z,99.90
2018-06-29T00:33:23.594Z,99.90
2018-06-29T00:35:51.877Z,99.90
2018-06-29T00:38:21.008Z,99.90
2018-06-29T00:43:17.264Z,99.90
2018-06-29T00:45:45.531Z,99.90
2018-06-29T00:48:13.806Z,99.90
2018-06-29T00:50:42.046Z,99.90
2018-06-29T00:53:10.355Z,99.90
2018-06-29T00:55:38.615Z,99.90
2018-06-29T00:58:06.870Z,99.90
2018-06-29T01:00:35.218Z,99.90
2018-06-29T01:03:03.600Z,99.90
2018-06-29T01:05:31.882Z,99.90
2018-06-29T01:08:00.164Z,99.90
2018-06-29T01:10:28.527Z,99.90
2018-06-29T01:12:56.906Z,99.90
2018-06-29T01:15:25.167Z,99.90
2018-06-29T01:17:53.467Z,99.90
2018-06-29T01:20:21.761Z,99.90
2018-06-29T01:22:50.044Z,99.90
2018-06-29T01:25:18.281Z,99.90
2018-06-29T01:27:46.545Z,99.90
2018-06-29T01:30:14.839Z,99.90
2018-06-29T01:32:43.093Z,99.90
2018-06-29T01:35:11.353Z,99.90
2018-06-29T01:37:39.598Z,99.90
2018-06-29T01:40:07.866Z,99.90
2018-06-29T01:42:36.136Z,99.90
2018-06-29T01:45:04.637Z,99.90
2018-06-29T01:47:32.879Z,99.90
2018-06-29T01:50:01.144Z,99.90
2018-06-29T01:52:29.403Z,99.90
2018-06-29T01:54:57.694Z,99.90
2018-06-29T01:57:25.998Z,99.90
2018-06-29T01:59:54.250Z,99.90
2018-06-29T02:02:23.288Z,99.90
2018-06-29T02:04:51.597Z,99.90
2018-06-29T02:07:19.871Z,99.90
2018-06-29T02:12:16.126Z,99.90
2018-06-29T02:14:44.407Z,99.90
2018-06-29T02:17:12.695Z,99.90
2018-06-29T02:19:41.035Z,99.90
2018-06-29T02:22:09.319Z,99.90
2018-06-29T02:24:37.551Z,99.90
2018-06-29T02:27:06.146Z,99.90
2018-06-29T02:29:34.468Z,99.90
2018-06-29T02:32:02.762Z,99.90
2018-06-29T02:34:31.068Z,99.90
2018-06-29T02:36:59.301Z,99.90
2018-06-29T02:39:27.615Z,99.90
2018-06-29T02:41:55.871Z,99.90
2018-06-29T02:44:24.348Z,99.90
2018-06-29T02:46:52.614Z,99.90
2018-06-29T02:49:20.859Z,99.90
2018-06-29T02:51:49.176Z,99.90
2018-06-29T02:54:17.398Z,99.90
2018-06-29T02:56:45.644Z,99.90
2018-06-29T02:59:13.919Z,99.90
2018-06-29T03:01:42.200Z,99.90
2018-06-29T03:04:10.491Z,99.90
2018-06-29T03:06:38.737Z,99.90
2018-06-29T03:09:08.123Z,99.90
2018-06-29T03:11:36.418Z,99.90
2018-06-29T03:14:04.693Z,99.90
2018-06-29T03:16:32.976Z,99.90
2018-06-29T03:19:01.211Z,99.90
2018-06-29T03:21:29.523Z,99.90
2018-06-29T03:23:57.888Z,99.90
2018-06-29T03:26:26.173Z,99.90
2018-06-29T03:28:54.717Z,99.90
2018-06-29T03:31:22.981Z,99.90
2018-06-29T03:33:51.246Z,99.90
2018-06-29T03:36:19.508Z,99.90
2018-06-29T03:38:47.814Z,99.90
2018-06-29T03:41:16.037Z,99.90
2018-06-29T03:43:44.453Z,99.90
2018-06-29T03:46:12.706Z,99.90
2018-06-29T03:48:41.015Z,99.90
2018-06-29T03:51:09.277Z,99.90
2018-06-29T03:53:37.548Z,99.90
2018-06-29T03:56:06.102Z,99.90
2018-06-29T03:58:34.352Z,99.90
2018-06-29T04:01:02.654Z,99.90
2018-06-29T04:03:30.955Z,99.90
2018-06-29T04:05:59.187Z,99.90
2018-06-29T04:08:27.971Z,99.90
2018-06-29T04:10:56.266Z,99.90
2018-06-29T04:13:24.528Z,99.90
2018-06-29T04:15:52.917Z,99.90
2018-06-29T04:18:21.297Z,99.90
2018-06-29T04:20:49.576Z,99.90
2018-06-29T04:23:17.873Z,99.90
2018-06-29T04:25:46.083Z,99.90
2018-06-29T04:30:42.360Z,99.90
2018-06-29T04:33:10.596Z,99.90
2018-06-29T04:35:38.846Z,99.90
2018-06-29T04:38:07.077Z,99.90
2018-06-29T04:40:35.287Z,99.90
2018-06-29T04:43:03.606Z,99.90
2018-06-29T04:45:31.887Z,99.90
2018-06-29T04:48:00.220Z,99.90
2018-06-29T04:50:28.504Z,99.90
2018-06-29T04:52:56.819Z,99.90
2018-06-29T04:57:53.373Z,99.90
2018-06-29T05:00:21.650Z,99.90
2018-06-29T05:02:49.944Z,99.90
2018-06-29T05:05:18.195Z,99.90
2018-06-29T05:07:46.488Z,99.90
2018-06-29T05:10:14.751Z,99.90
2018-06-29T05:12:43.008Z,99.90
2018-06-29T05:15:11.299Z,99.90
2018-06-29T05:20:07.625Z,99.90
2018-06-29T05:22:35.977Z,99.90
2018-06-29T05:25:04.265Z,99.90
2018-06-29T05:27:32.480Z,99.90
2018-06-29T05:30:00.783Z,99.90
2018-06-29T05:32:29.089Z,99.90
2018-06-29T05:34:57.894Z,99.90
2018-06-29T05:37:26.224Z,99.90
2018-06-29T05:39:54.699Z,99.90
2018-06-29T05:42:22.986Z,99.90
2018-06-29T05:44:51.317Z,99.90
2018-06-29T05:47:19.531Z,99.90
2018-06-29T05:49:47.806Z,99.90
2018-06-29T05:52:16.095Z,99.90
2018-06-29T05:54:44.391Z,99.90
2018-06-29T05:57:12.642Z,99.90
2018-06-29T05:59:40.931Z,99.90
2018-06-29T06:02:09.275Z,99.90
2018-06-29T06:04:37.553Z,99.90
2018-06-29T06:07:06.028Z,99.90
2018-06-29T06:12:02.728Z,99.90
2018-06-29T06:14:31.003Z,99.90
2018-06-29T06:16:59.377Z,99.90
2018-06-29T06:20:36.201Z,99.90
2018-06-29T06:23:19.469Z,99.90
2018-06-29T06:25:47.980Z,99.90
2018-06-29T06:28:16.760Z,99.90
2018-06-29T06:30:45.021Z,99.90
2018-06-29T06:33:13.449Z,99.90
2018-06-29T06:38:10.230Z,99.90
2018-06-29T06:40:38.512Z,99.90
2018-06-29T06:43:06.848Z,99.90
2018-06-29T06:45:35.135Z,99.90
2018-06-29T06:48:03.436Z,99.90
2018-06-29T06:50:31.753Z,99.90
2018-06-29T06:53:00.024Z,99.90
2018-06-29T06:55:28.319Z,99.90
2018-06-29T06:57:56.603Z,99.10
2018-06-29T07:00:24.913Z,98.50
2018-06-29T07:02:53.193Z,98.70
2018-06-29T07:05:21.498Z,99.30
2018-06-29T07:07:49.799Z,96.40
2018-06-29T07:10:18.096Z,94.30
2018-06-29T07:12:46.394Z,93.80
2018-06-29T07:15:14.708Z,93.70
2018-06-29T07:17:42.976Z,92.10
2018-06-29T07:20:11.321Z,91.70
2018-06-29T07:22:42.619Z,92.40
2018-06-29T07:25:10.964Z,90.90
2018-06-29T07:27:39.253Z,91.00
2018-06-29T07:30:08.277Z,90.50
2018-06-29T07:35:04.555Z,88.60
2018-06-29T07:37:32.919Z,84.50
2018-06-29T07:40:01.236Z,83.70
2018-06-29T07:42:29.535Z,83.50
2018-06-29T07:44:57.767Z,83.80
2018-06-29T07:49:55.172Z,79.30
2018-06-29T07:52:23.441Z,80.30
2018-06-29T07:54:51.802Z,78.60
2018-06-29T07:59:48.114Z,74.40
2018-06-29T08:02:16.383Z,72.60
2018-06-29T08:04:44.707Z,69.90
2018-06-29T08:07:12.972Z,71.70
2018-06-29T08:09:41.208Z,75.60
2018-06-29T08:12:09.495Z,74.60
2018-06-29T08:14:37.798Z,71.60
2018-06-29T08:19:34.037Z,61.00
2018-06-29T08:22:02.357Z,62.70
2018-06-29T08:24:31.869Z,59.50
2018-06-29T08:27:00.119Z,57.70
2018-06-29T08:29:28.391Z,57.60
2018-06-29T08:31:56.676Z,57.70
2018-06-29T08:34:24.939Z,57.20
2018-06-29T08:36:53.228Z,55.80
2018-06-29T08:39:21.487Z,58.60
2018-06-29T08:41:49.769Z,56.90
2018-06-29T08:44:18.080Z,54.60
2018-06-29T08:46:46.397Z,52.50
2018-06-29T08:49:14.643Z,53.40
2018-06-29T08:51:43.434Z,52.70
2018-06-29T08:54:11.687Z,51.40
2018-06-29T08:56:39.900Z,52.10
2018-06-29T08:59:08.156Z,53.50
2018-06-29T09:01:36.432Z,51.50
2018-06-29T09:04:04.681Z,52.30
2018-06-29T09:06:32.975Z,51.70
2018-06-29T09:09:01.520Z,54.30
2018-06-29T09:11:29.755Z,52.60
2018-06-29T09:13:58.022Z,52.30
2018-06-29T09:16:26.303Z,50.90
2018-06-29T09:18:54.589Z,47.90
2018-06-29T09:21:22.839Z,46.30
2018-06-29T09:23:51.093Z,46.10
2018-06-29T09:26:19.379Z,44.70
2018-06-29T09:28:47.636Z,44.40
2018-06-29T09:31:15.905Z,42.90
2018-06-29T09:33:44.161Z,43.30
2018-06-29T09:36:12.451Z,45.90
2018-06-29T09:38:40.730Z,45.70
2018-06-29T09:43:37.539Z,42.30
2018-06-29T09:46:06.492Z,42.80
2018-06-29T09:48:35.592Z,42.60
2018-06-29T09:51:04.418Z,44.50
2018-06-29T09:53:33.014Z,42.60
2018-06-29T09:56:01.614Z,44.20
2018-06-29T09:58:30.430Z,43.40
2018-06-29T10:00:59.416Z,43.00
2018-06-29T10:03:28.329Z,40.30
2018-06-29T10:05:56.881Z,43.50
2018-06-29T10:13:22.777Z,43.10
2018-06-29T10:15:51.681Z,41.90
2018-06-29T10:18:20.470Z,41.70
2018-06-29T10:20:49.624Z,41.90
2018-06-29T10:23:18.137Z,41.50
2018-06-29T10:25:46.352Z,41.80
2018-06-29T10:28:14.718Z,41.10
2018-06-29T10:30:42.916Z,40.60
2018-06-29T10:33:11.149Z,41.40
2018-06-29T10:35:39.415Z,41.60
2018-06-29T10:38:07.749Z,42.30
2018-06-29T10:40:36.025Z,39.70
2018-06-29T10:45:32.376Z,39.50
2018-06-29T10:50:28.642Z,37.70
2018-06-29T10:52:56.968Z,38.70
2018-06-29T10:55:25.301Z,39.90
2018-06-29T10:57:53.683Z,40.80
2018-06-29T11:00:21.988Z,40.90
2018-06-29T11:02:50.263Z,38.30
2018-06-29T11:05:18.940Z,40.30
2018-06-29T11:07:47.473Z,41.60
2018-06-29T11:10:15.740Z,37.50
2018-06-29T11:12:44.020Z,37.10
2018-06-29T11:15:12.245Z,36.30
2018-06-29T11:17:40.596Z,38.00
2018-06-29T11:20:08.865Z,35.40
2018-06-29T11:22:37.207Z,36.80
2018-06-29T11:25:05.439Z,34.20
2018-06-29T11:27:33.718Z,35.00
2018-06-29T11:30:01.988Z,37.70
2018-06-29T11:32:30.288Z,37.40
2018-06-29T11:34:58.693Z,35.60
2018-06-29T11:37:27.062Z,37.00
2018-06-29T11:39:55.383Z,37.10
2018-06-29T11:42:23.737Z,36.50
2018-06-29T11:44:52.279Z,34.40
2018-06-29T11:47:20.580Z,34.40
2018-06-29T11:49:48.861Z,34.40
2018-06-29T11:52:17.145Z,33.40
2018-06-29T11:54:45.684Z,33.20
2018-06-29T11:57:13.976Z,33.10
2018-06-29T11:59:42.312Z,33.40
2018-06-29T12:02:10.717Z,34.10
2018-06-29T12:04:39.040Z,36.20
2018-06-29T12:09:35.487Z,33.60
2018-06-29T12:12:03.761Z,33.80
2018-06-29T12:14:32.334Z,34.60
2018-06-29T12:17:00.652Z,35.70
2018-06-29T12:19:28.906Z,34.40
2018-06-29T12:21:57.236Z,34.90
2018-06-29T12:24:25.504Z,34.00
2018-06-29T12:26:53.751Z,33.60
2018-06-29T12:29:22.039Z,33.10
2018-06-29T12:31:50.321Z,33.70
2018-06-29T12:34:18.560Z,32.80
2018-06-29T12:36:47.067Z,31.20
2018-06-29T12:39:15.378Z,31.30
2018-06-29T12:41:43.681Z,31.30
2018-06-29T12:44:12.035Z,32.70
2018-06-29T12:46:40.278Z,34.70
2018-06-29T12:49:08.557Z,34.80
2018-06-29T12:51:36.991Z,34.90
2018-06-29T12:54:05.270Z,34.30
2018-06-29T12:56:33.555Z,35.40
2018-06-29T12:59:01.877Z,34.10
2018-06-29T13:01:30.219Z,35.20
2018-06-29T13:06:26.519Z,36.60
2018-06-29T13:08:54.770Z,37.50
2018-06-29T13:11:23.534Z,37.70
2018-06-29T13:13:52.062Z,39.30
2018-06-29T13:16:20.387Z,39.30
2018-06-29T13:21:16.725Z,40.70
2018-06-29T13:26:13.031Z,41.50
2018-06-29T13:28:41.436Z,41.90
2018-06-29T13:31:09.781Z,41.80
2018-06-29T13:33:38.062Z,40.80
2018-06-29T13:36:06.505Z,41.70
2018-06-29T13:38:34.781Z,40.40
2018-06-29T13:41:03.225Z,41.20
2018-06-29T13:43:31.556Z,41.70
2018-06-29T13:45:59.793Z,40.80
2018-06-29T13:48:28.110Z,40.90
2018-06-29T13:50:56.345Z,40.70
2018-06-29T13:53:24.709Z,39.90
2018-06-29T13:55:53.163Z,40.70
2018-06-29T13:58:21.637Z,42.20
2018-06-29T14:00:50.129Z,41.20
2018-06-29T14:03:18.508Z,40.90
2018-06-29T14:05:46.774Z,39.70
2018-06-29T14:08:15.267Z,41.20
2018-06-29T14:10:43.587Z,41.40
2018-06-29T14:13:11.942Z,41.00
2018-06-29T14:15:40.188Z,41.20
2018-06-29T14:18:08.543Z,42.80
2018-06-29T14:23:05.029Z,42.50
2018-06-29T14:25:33.329Z,42.90
2018-06-29T14:28:02.317Z,43.10
2018-06-29T14:30:30.722Z,42.80
2018-06-29T14:32:59.067Z,43.20
2018-06-29T14:35:27.368Z,42.80
2018-06-29T14:37:55.598Z,43.90
2018-06-29T14:40:24.216Z,42.90
2018-06-29T14:42:52.521Z,43.20
2018-06-29T14:45:20.816Z,42.80
2018-06-29T14:47:49.099Z,43.20
2018-06-29T14:50:17.457Z,42.40
2018-06-29T14:52:45.881Z,42.30
2018-06-29T14:55:14.125Z,42.10
2018-06-29T14:57:42.439Z,42.60
2018-06-29T15:00:11.622Z,43.20
2018-06-29T15:02:40.568Z,44.20
2018-06-29T15:05:09.189Z,44.20
2018-06-29T15:07:37.419Z,44.50
2018-06-29T15:10:06.045Z,44.10
2018-06-29T15:12:34.371Z,44.40
2018-06-29T15:15:02.851Z,42.50
2018-06-29T15:19:59.869Z,43.40
2018-06-29T15:22:29.223Z,44.40
2018-06-29T15:24:58.187Z,42.70
2018-06-29T15:29:54.831Z,44.80
2018-06-29T15:32:23.103Z,44.20
2018-06-29T15:34:51.372Z,44.10
2018-06-29T15:37:19.653Z,43.70
2018-06-29T15:39:47.975Z,43.60
2018-06-29T15:42:16.214Z,43.20
2018-06-29T15:44:44.547Z,44.70
2018-06-29T15:47:12.830Z,43.90
2018-06-29T15:49:41.166Z,43.80
2018-06-29T15:52:09.953Z,45.40
2018-06-29T15:54:38.245Z,44.10
2018-06-29T15:57:06.777Z,44.40
2018-06-29T15:59:35.066Z,44.30
2018-06-29T16:02:03.339Z,44.30
2018-06-29T16:04:31.719Z,44.10
2018-06-29T16:07:00.014Z,45.50
2018-06-29T16:09:28.248Z,45.70
2018-06-29T16:11:56.508Z,45.60
2018-06-29T16:14:24.824Z,46.00
2018-06-29T16:16:53.105Z,46.20
2018-06-29T16:19:21.382Z,46.90
2018-06-29T16:21:49.693Z,46.30
2018-06-29T16:26:45.969Z,46.70
2018-06-29T16:29:14.285Z,46.90
2018-06-29T16:31:42.546Z,47.50
2018-06-29T16:34:10.782Z,47.40
2018-06-29T16:36:39.715Z,46.90
2018-06-29T16:39:09.999Z,46.00
2018-06-29T16:41:38.314Z,46.80
2018-06-29T16:44:06.728Z,46.40
2018-06-29T16:46:35.059Z,47.20
2018-06-29T16:49:03.469Z,47.30
2018-06-29T16:51:31.820Z,46.10
2018-06-29T16:54:00.284Z,47.30
2018-06-29T16:56:28.618Z,47.00
2018-06-29T16:58:56.911Z,47.00
2018-06-29T17:01:25.209Z,46.40
2018-06-29T17:03:53.569Z,46.90
2018-06-29T17:06:21.846Z,46.10
2018-06-29T17:08:50.152Z,47.40
2018-06-29T17:11:18.471Z,46.60
2018-06-29T17:13:46.803Z,47.10
2018-06-29T17:16:15.137Z,46.70
2018-06-29T17:18:43.478Z,47.50
2018-06-29T17:21:11.756Z,47.60
2018-06-29T17:23:40.134Z,47.30
2018-06-29T17:26:08.442Z,46.90
2018-06-29T17:28:36.745Z,46.30
2018-06-29T17:31:05.072Z,46.30
2018-06-29T17:33:33.358Z,47.00
2018-06-29T17:36:01.796Z,47.40
2018-06-29T17:38:30.091Z,47.40
2018-06-29T17:40:58.420Z,47.60
2018-06-29T17:43:26.734Z,46.60
2018-06-29T17:45:55.093Z,46.40
2018-06-29T17:48:23.435Z,47.50
2018-06-29T17:50:51.711Z,47.50
2018-06-29T17:53:19.962Z,48.30
2018-06-29T17:55:48.317Z,47.50
2018-06-29T17:58:16.672Z,47.90
2018-06-29T18:00:44.993Z,48.00
2018-06-29T18:03:13.337Z,48.50
2018-06-29T18:05:41.689Z,48.80
2018-06-29T18:10:38.297Z,49.70
2018-06-29T18:13:06.754Z,49.30
2018-06-29T18:15:35.261Z,50.60
2018-06-29T18:18:03.598Z,51.20
2018-06-29T18:20:31.903Z,50.90
2018-06-29T18:23:00.191Z,51.00
2018-06-29T18:25:28.497Z,51.00
2018-06-29T18:27:57.330Z,51.60
2018-06-29T18:30:25.603Z,51.30
2018-06-29T18:32:54.167Z,51.20
2018-06-29T18:35:22.447Z,51.40
2018-06-29T18:37:50.717Z,51.00
2018-06-29T18:40:19.086Z,52.00
2018-06-29T18:42:47.358Z,52.80
2018-06-29T18:45:15.620Z,53.30
2018-06-29T18:47:43.884Z,53.80
2018-06-29T18:50:16.616Z,54.40
2018-06-29T18:52:45.009Z,54.30
2018-06-29T18:55:13.278Z,55.60
2018-06-29T18:57:41.565Z,55.50
2018-06-29T19:00:09.842Z,56.90
2018-06-29T19:02:38.217Z,56.30
2018-06-29T19:05:06.424Z,56.50
2018-06-29T19:07:34.712Z,56.80
2018-06-29T19:10:02.993Z,57.60
2018-06-29T19:12:31.337Z,57.20
2018-06-29T19:14:59.664Z,56.70
2018-06-29T19:19:57.057Z,57.90
2018-06-29T19:22:25.323Z,61.00
2018-06-29T19:24:53.935Z,60.70
2018-06-29T19:27:22.170Z,59.50
2018-06-29T19:32:18.514Z,61.50
2018-06-29T19:37:14.840Z,60.50
2018-06-29T19:39:43.165Z,62.10
2018-06-29T19:44:39.600Z,62.20
2018-06-29T19:47:08.034Z,62.90
2018-06-29T19:49:36.386Z,63.60
2018-06-29T19:52:04.721Z,63.00
2018-06-29T19:57:01.032Z,63.00
2018-06-29T19:59:29.323Z,61.90
2018-06-29T20:01:57.761Z,60.60
2018-06-29T20:04:26.070Z,62.80
2018-06-29T20:06:54.541Z,63.20
2018-06-29T20:09:22.836Z,63.80
2018-06-29T20:11:51.131Z,63.30
2018-06-29T20:14:19.468Z,66.90
2018-06-29T20:16:47.758Z,65.60
2018-06-29T20:19:16.093Z,68.90
2018-06-29T20:21:44.389Z,66.60
2018-06-29T20:24:12.724Z,67.10
2018-06-29T20:29:09.084Z,68.50
2018-06-29T20:31:37.377Z,68.00
2018-06-29T20:34:05.697Z,68.30
2018-06-29T20:36:33.971Z,67.80
2018-06-29T20:39:02.283Z,68.00
2018-06-29T20:43:58.723Z,68.30
2018-06-29T20:46:27.020Z,70.80
2018-06-29T20:48:55.392Z,70.10
2018-06-29T20:53:51.729Z,70.00
2018-06-29T20:56:20.061Z,71.90
2018-06-29T20:58:48.450Z,70.50
2018-06-29T21:01:16.778Z,71.30
2018-06-29T21:03:47.055Z,72.10
2018-06-29T21:06:15.440Z,74.40
2018-06-29T21:08:43.725Z,75.10
2018-06-29T21:11:12.132Z,73.50
2018-06-29T21:13:40.477Z,73.90
2018-06-29T21:16:09.428Z,73.70
2018-06-29T21:18:44.522Z,75.10
2018-06-29T21:21:12.880Z,75.00
2018-06-29T21:23:41.204Z,75.60
2018-06-29T21:26:10.064Z,76.40
2018-06-29T21:28:38.404Z,75.80
2018-06-29T21:31:06.683Z,77.60
2018-06-29T21:33:34.961Z,78.80
2018-06-29T21:36:03.258Z,78.80
2018-06-29T21:38:31.498Z,80.80
2018-06-29T21:41:00.351Z,81.40
2018-06-29T21:43:28.588Z,81.90
2018-06-29T21:45:56.969Z,82.30
2018-06-29T21:48:25.248Z,82.90
2018-06-29T21:50:53.556Z,83.70
2018-06-29T21:53:21.786Z,82.20
2018-06-29T21:55:50.089Z,84.10
2018-06-29T21:58:18.317Z,84.50
2018-06-29T22:00:46.649Z,84.90
2018-06-29T22:03:14.975Z,84.60
2018-06-29T22:05:43.817Z,84.50
2018-06-29T22:08:14.180Z,86.20
2018-06-29T22:10:42.474Z,84.90
2018-06-29T22:13:11.099Z,84.90
2018-06-29T22:15:39.367Z,84.70
2018-06-29T22:18:07.639Z,85.50
2018-06-29T22:20:35.936Z,87.40
2018-06-29T22:25:32.224Z,87.50
2018-06-29T22:28:00.540Z,88.10
2018-06-29T22:30:28.737Z,87.50
2018-06-29T22:32:57.057Z,90.00
2018-06-29T22:35:25.347Z,90.30
2018-06-29T22:37:53.602Z,90.30
2018-06-29T22:40:22.178Z,91.30
2018-06-29T22:42:50.520Z,91.10
2018-06-29T22:47:46.802Z,92.30
2018-06-29T22:50:15.180Z,92.40
2018-06-29T22:52:43.460Z,93.20
2018-06-29T22:55:11.719Z,93.60
2018-06-29T22:57:39.997Z,93.90
2018-06-29T23:00:08.278Z,94.30
2018-06-29T23:02:36.527Z,95.00
2018-06-29T23:05:04.802Z,95.40
2018-06-29T23:07:33.055Z,95.50
2018-06-29T23:10:01.361Z,96.10
2018-06-29T23:12:29.624Z,96.40
2018-06-29T23:14:57.911Z,96.80
2018-06-29T23:19:54.215Z,98.00
2018-06-29T23:22:22.430Z,98.10
2018-06-29T23:27:18.679Z,99.70
2018-06-29T23:29:46.945Z,99.50
2018-06-29T23:32:15.200Z,99.90
2018-06-29T23:34:43.535Z,99.90
2018-06-29T23:37:11.757Z,99.90
2018-06-29T23:39:40.081Z,99.90
2018-06-29T23:42:08.363Z,99.90
2018-06-29T23:44:36.632Z,99.90
2018-06-29T23:47:04.928Z,99.90
2018-06-29T23:49:33.194Z,99.90
2018-06-29T23:52:01.569Z,99.90
2018-06-29T23:54:29.923Z,99.90
2018-06-29T23:59:26.233Z,99.90
